Historyczne dane pomiarowe

Dodano dane terminowe – wersja testowa.

Dane z okresu 1951-2019

Wersja bazy: 1.34 [2019-03-16, lista zmian], aktualizacja planowana na 2019-04-15

Dane meteo z obszaru Polski uzyskane na podstawie danych udostępnionych przez Instytut Meteorologii i Gospodarki Wodnej – Państwowy Instytut Badawczy.

 

Wybierz Datę:    

       

TemperaturaWilgotnośćWiatrCiśnienieOpadyŚniegCzas trwania zjawisk
 Stacja t tx tn tng RH VA  wxwx mslp ppp RRR   cm mm wxwxwxwxwxwxwx
1956-11-09 -5.6 -3.1 -8.9-12.4 76.8- 5.3 1.7---- 0.0------------
1956-11-08 -4.9 1.3 -7.1 -9.2 73.3- 0.7 2.7---- 0.0------------
1956-11-07 -2.9 -0.7 -4.7 -3.8 73.8- 3.0 7.0---- 0.0------------
1956-11-06 -0.4 2.2 -1.4 -2.0 78.3- 4.7 11.0---- 0.0------------
1956-11-05 0.7 2.5 -5.7 -8.7 84.0- 8.0 2.7---- 1.1-- 3---------
1956-11-04 -2.4 2.2 -4.9 -5.4 77.5- 5.0 1.7---- 0.0-- 4---------
1956-11-03 -1.5 0.5 -7.0-11.3 77.3- 7.0 1.7---- 1.0-- 4---------
1956-11-02 -3.6 1.0 -7.1-12.5 71.3- 0.7 1.0---- 0.0-- 5---------
1956-11-01 -1.0 0.4 -4.1 -5.7 78.8- 8.0 10.0---- 5.6------------
1956-10-31 -5.1 -2.5 -9.4-11.3 71.5- 0.0 2.7---- 0.0------------
1956-10-30 -3.5 0.8 -5.6 -1.7 76.8- 8.0 2.3---- 0.0------------
1956-10-29 3.2 8.2 0.6 3.4 79.0- 7.0 2.0---- 0.2------------
1956-10-28 7.7 8.8 7.1 7.1 91.0- 8.0 2.7---- 25.0------------
1956-10-27 8.2 9.5 7.4 8.1 89.8- 8.0 2.7---- 0.0------------
1956-10-26 7.2 9.7 3.9 2.1 93.8- 8.0 0.7---- 0.7------------
1956-10-25 10.1 15.3 5.9 4.3 76.5- 3.3 2.3---- 0.0------------
1956-10-24 10.6 12.7 7.6 6.0 79.5- 4.0 3.7---- 0.0------------
1956-10-23 9.2 10.5 8.3 8.2 72.8- 8.0 4.7---- 0.0------------
1956-10-22 10.6 12.8 9.6 8.3 75.5- 7.3 7.7---- 0.0------------
1956-10-21 11.2 12.9 6.7 3.6 83.0- 7.0 3.0---- 0.0------------
1956-10-20 8.2 10.7 5.7 4.1 84.3- 8.0 2.0---- 0.0------------
1956-10-19 8.8 11.5 7.1 8.2 86.5- 5.3 2.3---- 2.8------------
1956-10-18 7.9 10.3 1.7 -1.3 79.0- 8.0 2.7---- 0.2------------
1956-10-17 5.3 11.3 0.6 2.1 75.8- 3.3 2.0---- 0.0------------
1956-10-16 3.4 8.3 1.2 3.6 76.0- 2.3 1.3---- 0.0------------
1956-10-15 4.7 9.7 2.6 1.0 84.5- 1.7 3.0---- 0.0------------
1956-10-14 6.4 10.2 4.5 3.7 78.3- 4.0 10.0---- 0.0------------
1956-10-13 9.1 10.7 7.8 6.1 76.5- 8.0 12.7---- 13.8------------
1956-10-12 9.3 11.8 7.7 6.6 79.3- 7.3 6.7---- 0.0------------
1956-10-11 7.2 8.8 3.8 1.5 79.5- 7.7 6.0---- 0.0------------
1956-10-10 3.7 7.2 -0.3 -2.3 68.3- 4.3 2.0---- 1.0------------
1956-10-09 5.9 9.0 2.0 -0.1 76.5- 2.3 2.7---- 1.2------------
1956-10-08 4.6 6.5 3.3 1.3 81.5- 5.3 2.0---- 1.5------------
1956-10-07 5.8 8.7 3.6 3.1 83.3- 8.0 14.7---- 11.5------------
1956-10-06 8.5 9.2 6.8 4.3 90.5- 8.0 2.0---- 58.8------------
1956-10-05 8.7 13.4 6.5 6.2 84.3- 5.0 2.3---- 1.6------------
1956-10-04 8.5 11.7 4.0 2.6 83.8- 8.0 2.3---- 0.0------------
1956-10-03 13.6 17.3 10.6 9.5 74.5- 5.3 6.3---- 0.0------------
1956-10-02 16.6 23.2 9.2 6.0 70.8- 0.3 3.7---- 0.0------------
1956-10-01 13.6 18.7 4.7 2.9 73.5- 1.0 4.3---- 0.0------------
1956-09-30 12.0 15.7 9.2 6.8 83.0- 2.7 5.3---- 0.0------------
1956-09-29 15.9 20.0 11.9 9.4 79.5- 6.0 7.3---- 0.0------------
1956-09-28 13.7 19.5 8.8 5.7 79.5- 3.3 2.3---- 0.2------------
1956-09-27 12.6 20.4 4.1 1.6 69.5- 1.3 2.0---- 0.0------------
1956-09-26 9.9 20.2 3.5 0.6 74.5- 0.0 2.3---- 0.0------------
1956-09-25 7.8 16.5 -0.4 -3.5 69.0- 0.7 1.7---- 0.0------------
1956-09-24 5.0 13.9 -0.2 -3.0 71.8- 0.0 1.0---- 0.0------------
1956-09-23 6.6 13.8 3.2 0.1 69.0- 1.7 2.3---- 0.0------------
1956-09-22 10.4 15.5 4.3 1.3 67.8- 5.7 1.3---- 0.0------------
1956-09-21 9.3 16.1 3.5 0.7 64.0- 1.0 1.3---- 0.0------------
1956-09-20 10.4 14.9 3.6 2.1 66.3- 6.0 3.0---- 0.0------------
1956-09-19 8.5 13.0 3.6 -0.6 73.8- 4.7 1.7---- 0.0------------
1956-09-18 7.4 11.6 5.2 3.7 72.8- 4.7 3.7---- 0.0------------
1956-09-17 8.2 11.8 4.1 4.4 70.3- 4.3 6.0---- 0.6------------
1956-09-16 9.4 11.9 3.9 0.5 71.8- 7.3 10.7---- 0.0------------
1956-09-15 8.0 12.5 4.6 1.8 81.5- 4.7 2.7---- 0.1------------
1956-09-14 8.4 13.3 6.2 5.0 71.8- 2.0 1.7---- 0.0------------
1956-09-13 9.7 13.4 5.6 4.1 81.0- 3.0 4.3---- 0.0------------
1956-09-12 10.6 13.5 8.2 8.4 85.8- 6.0 4.3---- 26.0------------
1956-09-11 11.9 13.0 9.6 7.5 88.5- 8.0 1.3---- 1.4------------
264.8 ms

 

Źródłem pochodzenia danych jest Instytut Meteorologii i Gospodarki Wodnej – Państwowy Instytut Badawczy. Dane Instytutu Meteorologii i Gospodarki Wodnej – Państwowego Instytutu Badawczego zostały przetworzone.

Dane źródłowe można odnaleźć na stronie https://dane.imgw.pl